Startpagina
METAR-TAF:

METAR-TAF

Vliegvelden :

Ouagadougou, Burkina Faso

Luchthaven Ouagadougou Internationaal

breedte: 12-21N, lengte: 001-31W, hoogte: 316 m

Actueel weer

Dit bericht is 2 uur en het 5 minuten geleden gemaakt, om 19:00 UTC
Wind 3 kt uit het oostnoordoosten
Temperatuur 27°C
Vochtigheid 23%
Druk 1013 hPa
Zicht: 2500 m
verspreid stof

METAR: DFFD 161900Z 07003KT 2500 DU NSC 27/04 Q1013 BECMG 4000 DU

Tijdstip: 21:05 (21:05 UTC)

Verwachting

Dit bericht is 4 uur en het 5 minuten geleden gemaakt, om 17:00 UTC
Verwachting geldig van 16 om 18 UTC tot 17 om 24 UTC
Wind 8 kt uit het oosten
Zicht: 3500 m
verspreid stof
Tijdelijke
van 16 om 18 UTC tot 16 om 21 UTC
Zicht: 2500 m
verspreid stof
Wijzigt naar
van 17 om 06 UTC tot 17 om 08 UTC
Zicht: 1400 m
verspreid stof
Wijzigt naar
van 17 om 12 UTC tot 17 om 14 UTC
Zicht: 2500 m
verspreid stof

TAF: DFFD 161700Z 1618/1724 08008KT 3500 DU NSC TEMPO 1618/1621 2500 DU BECMG 1706/1708 1400 DU BECMG 1712/1714 2500 DU

Waarnemingen en weersverwachtingen van meer dan 4000 vliegvelden (METAR en TAF).

De beschikbare stations zijn de gele en rode punten op de kaart.

Ga met uw muis naar het station om de naam te zien.

Klik dan om waarnemingen en weersverwachtingen te zien.

kaart wijzigen: klik op de groene knoppen met een zwart kruis om in te zoomen, op de groene knop met een streepje om uit te zoomen of op de groene pijlen voor aangrenzende kaarten.


METAR-TAF: